Time;durP1;ratioP1;P1;durP2;ratioP2;P2;SDS_P1;SDS_P2;PMS_P1;PMS_P2;Temp;Humidity;BMP_temperature;BMP_pressure;BME280_temperature;BME280_humidity;BME280_pressure;Samples;Min_cycle;Max_cycle;Signal;HPM_P1;HPM_P2
2023/06/27 00:00:29;;;;;;;4.15;2.60;;;23.40;61.30;;;;;;5006039;28;20036;-66
2023/06/27 00:02:55;;;;;;;4.60;2.80;;;23.40;62.20;;;;;;5006327;28;20034;-66
2023/06/27 00:05:21;;;;;;;6.88;2.35;;;23.40;61.60;;;;;;5005320;28;20562;-66
2023/06/27 00:07:47;;;;;;;2.95;2.05;;;23.40;61.60;;;;;;5005774;28;20065;-66
2023/06/27 00:10:13;;;;;;;6.03;3.03;;;23.50;61.60;;;;;;5004911;28;20094;-65
2023/06/27 00:12:39;;;;;;;3.58;2.53;;;23.50;61.10;;;;;;5005253;28;20061;-66
2023/06/27 00:15:05;;;;;;;4.55;2.60;;;23.50;61.60;;;;;;5005107;28;20030;-66
2023/06/27 00:17:34;;;;;;;3.08;2.38;;;23.50;61.30;;;;;;5003195;28;20032;-67
2023/06/27 00:20:01;;;;;;;5.32;2.65;;;23.40;61.10;;;;;;4999647;28;20054;-65
2023/06/27 00:22:27;;;;;;;2.63;1.60;;;23.50;61.60;;;;;;5006794;28;20065;-64
2023/06/27 00:24:53;;;;;;;3.83;2.17;;;23.50;61.10;;;;;;5004347;28;20041;-66
2023/06/27 00:27:20;;;;;;;2.83;2.20;;;23.40;61.10;;;;;;5006297;28;20030;-66
2023/06/27 00:29:45;;;;;;;4.03;2.70;;;23.50;61.40;;;;;;5005091;28;20377;-66
2023/06/27 00:32:11;;;;;;;3.55;2.70;;;23.40;61.30;;;;;;5004778;28;20096;-66
2023/06/27 00:34:36;;;;;;;4.68;2.35;;;23.40;61.40;;;;;;5004491;28;20042;-66
2023/06/27 00:37:02;;;;;;;6.93;2.58;;;23.40;61.30;;;;;;5005568;28;20073;-65
2023/06/27 00:39:28;;;;;;;4.88;2.75;;;23.40;61.60;;;;;;5004254;28;20463;-65
2023/06/27 00:41:53;;;;;;;5.20;2.47;;;23.40;61.60;;;;;;5004427;28;20149;-66
2023/06/27 00:44:19;;;;;;;3.50;2.38;;;23.40;61.40;;;;;;5002787;28;20037;-66
2023/06/27 00:46:48;;;;;;;3.28;2.80;;;23.40;61.80;;;;;;5003959;28;20030;-66
2023/06/27 00:49:17;;;;;;;3.40;2.58;;;23.40;61.20;;;;;;5004203;28;20022;-66
2023/06/27 00:51:46;;;;;;;4.50;2.63;;;23.40;61.40;;;;;;5001137;28;20037;-66
2023/06/27 00:54:12;;;;;;;5.05;2.92;;;23.40;61.50;;;;;;5000118;28;20064;-67
2023/06/27 00:56:38;;;;;;;4.82;1.92;;;23.20;60.90;;;;;;5001036;28;20071;-66
2023/06/27 00:59:04;;;;;;;4.70;2.80;;;23.20;61.50;;;;;;5002517;28;20038;-66
2023/06/27 01:01:31;;;;;;;3.70;2.17;;;23.20;61.20;;;;;;5004202;28;20037;-66
2023/06/27 01:03:57;;;;;;;5.57;2.20;;;23.30;61.00;;;;;;5003254;28;20037;-66
2023/06/27 01:06:39;;;;;;;4.03;2.28;;;23.20;61.20;;;;;;5003702;28;20038;-66
2023/06/27 01:09:12;;;;;;;3.45;2.20;;;23.30;61.10;;;;;;5000841;28;20030;-65
2023/06/27 01:11:57;;;;;;;3.60;2.42;;;23.30;61.30;;;;;;4999921;28;20034;-65
2023/06/27 01:14:25;;;;;;;5.53;3.15;;;23.30;61.60;;;;;;5001018;28;20037;-67
2023/06/27 01:16:52;;;;;;;5.03;2.33;;;23.40;61.50;;;;;;5003199;28;20056;-66
2023/06/27 01:19:21;;;;;;;4.85;2.10;;;23.40;61.20;;;;;;5004003;28;20018;-66
2023/06/27 01:21:52;;;;;;;3.28;2.20;;;23.30;61.00;;;;;;5001484;28;20045;-66
2023/06/27 01:24:18;;;;;;;6.38;2.65;;;23.20;61.00;;;;;;5004705;28;20045;-65
2023/06/27 01:26:43;;;;;;;4.72;2.30;;;23.20;61.20;;;;;;5002974;28;20026;-66
2023/06/27 01:29:11;;;;;;;3.97;2.30;;;23.30;61.60;;;;;;5005276;28;20121;-66
2023/06/27 01:31:56;;;;;;;3.63;1.85;;;23.30;61.30;;;;;;5005516;28;20615;-66
2023/06/27 01:34:50;;;;;;;3.53;2.30;;;23.30;61.20;;;;;;5003746;28;20038;-66
2023/06/27 01:37:25;;;;;;;3.70;2.33;;;23.30;61.10;;;;;;5001045;28;20101;-65
2023/06/27 01:40:07;;;;;;;9.57;3.10;;;23.30;60.80;;;;;;5000015;28;20076;-67
2023/06/27 01:42:39;;;;;;;3.85;2.67;;;23.10;59.20;;;;;;5003087;28;20424;-65
2023/06/27 01:45:07;;;;;;;3.22;2.42;;;23.10;60.90;;;;;;5003126;28;20034;-66
2023/06/27 01:47:35;;;;;;;4.18;2.10;;;23.20;60.80;;;;;;5000123;28;20031;-66
2023/06/27 01:50:01;;;;;;;5.75;2.40;;;23.10;60.20;;;;;;5004847;28;20030;-66
2023/06/27 01:52:27;;;;;;;3.00;2.10;;;23.00;59.10;;;;;;5006904;28;20041;-65
2023/06/27 01:54:52;;;;;;;3.97;1.95;;;23.00;60.30;;;;;;5004909;28;20654;-67
2023/06/27 01:57:18;;;;;;;4.75;1.92;;;23.00;60.30;;;;;;5000965;28;20493;-67
2023/06/27 01:59:43;;;;;;;4.72;2.08;;;23.00;59.50;;;;;;5003520;28;20034;-66
2023/06/27 02:02:09;;;;;;;2.78;1.85;;;23.00;60.00;;;;;;4998197;28;20088;-64
2023/06/27 02:04:34;;;;;;;5.63;2.42;;;23.00;60.00;;;;;;5001081;28;20087;-66
2023/06/27 02:07:00;;;;;;;5.00;2.10;;;23.00;58.60;;;;;;5000234;28;20672;-66
2023/06/27 02:09:25;;;;;;;3.97;2.08;;;22.90;59.60;;;;;;4999554;28;20022;-66
2023/06/27 02:11:51;;;;;;;3.10;1.70;;;22.90;59.90;;;;;;5000211;28;20026;-66
2023/06/27 02:14:16;;;;;;;3.78;2.20;;;23.00;59.60;;;;;;5000519;28;20030;-66
2023/06/27 02:16:42;;;;;;;3.22;1.75;;;22.80;57.70;;;;;;5001515;28;20037;-65
2023/06/27 02:19:07;;;;;;;3.17;1.38;;;22.80;59.60;;;;;;5004235;28;20034;-66
2023/06/27 02:21:33;;;;;;;3.17;1.88;;;22.90;59.40;;;;;;5002794;28;20531;-66
2023/06/27 02:23:58;;;;;;;3.15;1.90;;;22.70;59.00;;;;;;5004273;28;20034;-66
2023/06/27 02:26:24;;;;;;;4.60;2.05;;;22.80;58.40;;;;;;5002423;28;20034;-67
2023/06/27 02:28:50;;;;;;;3.78;2.28;;;22.70;59.20;;;;;;5024845;28;20040;-67
2023/06/27 02:31:15;;;;;;;2.58;1.75;;;22.70;59.10;;;;;;5003413;28;20041;-66
2023/06/27 02:33:41;;;;;;;2.67;1.52;;;22.70;59.50;;;;;;5003546;28;20022;-67
2023/06/27 02:36:06;;;;;;;3.80;1.83;;;22.80;59.40;;;;;;5003105;28;20124;-66
2023/06/27 02:38:32;;;;;;;5.03;1.88;;;22.90;59.60;;;;;;5001389;28;20030;-66
2023/06/27 02:40:58;;;;;;;4.22;1.73;;;22.70;58.90;;;;;;5001975;28;20025;-64
2023/06/27 02:43:23;;;;;;;3.47;1.58;;;22.70;58.70;;;;;;5001672;28;20026;-65
2023/06/27 02:45:49;;;;;;;5.88;1.73;;;22.70;59.10;;;;;;5000796;28;20032;-66
2023/06/27 02:48:14;;;;;;;3.25;1.70;;;22.70;59.10;;;;;;5002768;28;20026;-66
2023/06/27 02:50:40;;;;;;;7.05;1.73;;;22.70;58.90;;;;;;5001500;28;20032;-66
2023/06/27 02:53:06;;;;;;;4.50;2.13;;;22.60;58.50;;;;;;5001111;28;20034;-66
2023/06/27 02:55:31;;;;;;;8.57;1.65;;;22.60;59.10;;;;;;5001970;28;20459;-66
2023/06/27 02:57:57;;;;;;;5.68;2.15;;;22.60;58.90;;;;;;5003257;28;20196;-66
2023/06/27 03:00:22;;;;;;;4.30;1.70;;;22.60;57.60;;;;;;5002242;28;20695;-66
2023/06/27 03:02:48;;;;;;;2.95;1.50;;;22.40;58.00;;;;;;5003674;28;20029;-66
2023/06/27 03:05:14;;;;;;;2.55;1.65;;;22.30;58.00;;;;;;5001786;28;20382;-66
2023/06/27 03:07:39;;;;;;;6.03;1.98;;;22.40;58.40;;;;;;5000777;28;20034;-64
2023/06/27 03:10:05;;;;;;;4.10;1.85;;;22.50;58.70;;;;;;5002720;28;20029;-66
2023/06/27 03:12:31;;;;;;;2.60;1.35;;;22.60;58.30;;;;;;5000393;28;20034;-66
2023/06/27 03:14:58;;;;;;;3.55;1.58;;;22.60;58.20;;;;;;5001724;28;20026;-65
2023/06/27 03:17:24;;;;;;;2.67;1.42;;;22.60;58.40;;;;;;5006505;28;20065;-65
2023/06/27 03:19:49;;;;;;;5.93;1.98;;;22.60;57.70;;;;;;5005248;28;20469;-66
2023/06/27 03:22:15;;;;;;;7.45;2.22;;;22.50;57.80;;;;;;5005394;28;20619;-66
2023/06/27 03:24:41;;;;;;;3.05;1.50;;;22.50;57.90;;;;;;5005782;28;20037;-66
2023/06/27 03:27:06;;;;;;;4.22;1.17;;;22.40;58.80;;;;;;5006935;28;20125;-66
2023/06/27 03:29:32;;;;;;;3.28;2.00;;;22.50;58.50;;;;;;5005090;28;20520;-65
2023/06/27 03:31:57;;;;;;;4.15;1.50;;;22.50;58.20;;;;;;5004727;28;20038;-65
2023/06/27 03:34:23;;;;;;;5.07;1.88;;;22.40;57.40;;;;;;5003363;28;20084;-65
2023/06/27 03:36:48;;;;;;;3.97;1.50;;;22.30;56.60;;;;;;5005597;28;20661;-65
2023/06/27 03:39:14;;;;;;;3.83;1.48;;;22.30;58.40;;;;;;5003601;28;20061;-66
2023/06/27 03:41:39;;;;;;;3.22;1.35;;;22.30;57.90;;;;;;5004864;28;20022;-66
2023/06/27 03:44:05;;;;;;;3.90;1.50;;;22.30;58.20;;;;;;5004778;28;20049;-65
2023/06/27 03:46:30;;;;;;;3.78;1.63;;;22.30;58.20;;;;;;5004247;28;20049;-65
2023/06/27 03:48:58;;;;;;;4.20;1.33;;;22.30;58.90;;;;;;5006964;28;20040;-65
2023/06/27 03:51:23;;;;;;;2.38;1.30;;;22.40;58.40;;;;;;5005114;28;20029;-66
2023/06/27 03:53:49;;;;;;;5.03;1.50;;;22.50;58.30;;;;;;5006195;28;20784;-65
2023/06/27 03:56:14;;;;;;;4.22;1.27;;;22.40;57.50;;;;;;5004613;28;20034;-66
2023/06/27 03:58:40;;;;;;;3.22;2.00;;;22.50;58.20;;;;;;5004837;28;20040;-66
2023/06/27 04:01:05;;;;;;;2.65;1.75;;;22.40;57.80;;;;;;5005690;28;20022;-66
2023/06/27 04:03:31;;;;;;;2.90;1.40;;;22.30;57.70;;;;;;5005797;28;20041;-65
2023/06/27 04:05:56;;;;;;;4.07;1.63;;;22.30;57.90;;;;;;5002983;28;20030;-66
2023/06/27 04:08:22;;;;;;;5.63;1.73;;;22.40;58.20;;;;;;5005558;28;20030;-65
2023/06/27 04:10:48;;;;;;;2.78;1.80;;;22.30;57.60;;;;;;5002944;28;20033;-65
2023/06/27 04:13:13;;;;;;;4.65;1.45;;;22.20;57.40;;;;;;5005766;28;20103;-66
2023/06/27 04:15:41;;;;;;;3.83;1.70;;;22.30;57.70;;;;;;5005561;28;20350;-65
2023/06/27 04:18:07;;;;;;;3.15;1.88;;;22.30;57.70;;;;;;5004940;28;20034;-65
2023/06/27 04:20:32;;;;;;;2.33;1.35;;;22.30;57.70;;;;;;5006791;28;20080;-66
2023/06/27 04:22:58;;;;;;;4.60;1.48;;;22.30;56.40;;;;;;5006742;28;20049;-65
2023/06/27 04:25:25;;;;;;;4.50;1.20;;;22.20;57.70;;;;;;5008873;28;20030;-65
2023/06/27 04:27:50;;;;;;;5.55;1.60;;;22.20;57.60;;;;;;5005924;28;20038;-65
2023/06/27 04:30:16;;;;;;;5.60;1.83;;;22.30;57.20;;;;;;5005846;28;20034;-65
2023/06/27 04:32:41;;;;;;;4.15;1.95;;;22.00;56.80;;;;;;5004489;28;20042;-65
2023/06/27 04:35:07;;;;;;;2.88;1.38;;;22.10;57.80;;;;;;5004511;28;20046;-65
2023/06/27 04:37:33;;;;;;;2.58;1.48;;;22.20;57.40;;;;;;5005243;28;20128;-65
2023/06/27 04:39:59;;;;;;;2.40;1.50;;;22.20;57.40;;;;;;5006157;28;20030;-65
2023/06/27 04:42:24;;;;;;;3.17;1.90;;;22.30;57.30;;;;;;5005048;28;20034;-65
2023/06/27 04:44:50;;;;;;;3.50;1.73;;;22.30;56.80;;;;;;5004314;28;20050;-67
2023/06/27 04:47:15;;;;;;;5.32;2.03;;;22.00;57.40;;;;;;5003723;28;20037;-65
2023/06/27 04:49:41;;;;;;;5.82;2.10;;;22.20;57.30;;;;;;5004548;28;20064;-65
2023/06/27 04:52:06;;;;;;;3.90;1.40;;;22.20;57.30;;;;;;5005247;28;20515;-65
2023/06/27 04:54:32;;;;;;;5.03;1.58;;;22.20;57.80;;;;;;5003820;28;20049;-66
2023/06/27 04:56:58;;;;;;;2.25;1.65;;;22.30;57.60;;;;;;5005384;28;20022;-65
2023/06/27 04:59:23;;;;;;;4.57;1.33;;;22.20;57.40;;;;;;5001975;28;20538;-60
2023/06/27 05:01:48;;;;;;;4.15;1.10;;;22.20;57.60;;;;;;5002042;28;20027;-65
2023/06/27 05:04:14;;;;;;;2.92;1.40;;;22.30;57.60;;;;;;5005114;28;20029;-65
2023/06/27 05:06:39;;;;;;;4.10;1.30;;;22.40;57.50;;;;;;5004618;28;20487;-66
2023/06/27 05:09:05;;;;;;;3.97;1.80;;;22.40;57.50;;;;;;5003498;28;20022;-65
2023/06/27 05:11:31;;;;;;;2.33;1.50;;;22.40;57.30;;;;;;5005065;28;20056;-65
2023/06/27 05:13:56;;;;;;;6.03;1.60;;;22.40;56.60;;;;;;5005271;28;20584;-65
2023/06/27 05:16:23;;;;;;;4.88;1.52;;;22.40;57.40;;;;;;5004933;28;20034;-66
2023/06/27 05:18:48;;;;;;;4.00;1.55;;;22.30;59.20;;;;;;5005233;28;20058;-64
2023/06/27 05:21:14;;;;;;;5.00;1.70;;;22.20;58.30;;;;;;5003794;28;20120;-66
2023/06/27 05:23:39;;;;;;;5.72;1.42;;;22.10;57.80;;;;;;5004454;28;20026;-67
2023/06/27 05:26:05;;;;;;;6.25;2.88;;;22.10;57.80;;;;;;5005147;28;20491;-66
2023/06/27 05:28:30;;;;;;;5.80;1.90;;;22.00;57.10;;;;;;5002857;28;20026;-65
2023/06/27 05:30:57;;;;;;;3.25;1.50;;;22.10;57.30;;;;;;5003531;28;20064;-66
2023/06/27 05:33:22;;;;;;;4.57;1.52;;;22.00;57.00;;;;;;5000999;28;20472;-65
2023/06/27 05:35:48;;;;;;;5.10;1.98;;;22.00;56.70;;;;;;4997123;28;20045;-65
2023/06/27 05:38:13;;;;;;;5.10;2.22;;;22.00;56.80;;;;;;5001972;28;20073;-65
2023/06/27 05:40:39;;;;;;;4.70;1.70;;;22.00;57.00;;;;;;5000358;28;20559;-65
2023/06/27 05:43:04;;;;;;;7.85;2.03;;;22.00;56.60;;;;;;5004512;28;20058;-66
2023/06/27 05:45:30;;;;;;;3.17;1.48;;;21.90;56.90;;;;;;5003479;28;20034;-63
2023/06/27 05:47:55;;;;;;;4.90;2.17;;;22.00;56.90;;;;;;5004408;28;20136;-66
2023/06/27 05:50:21;;;;;;;4.65;1.77;;;21.90;56.90;;;;;;5004128;28;20701;-66
2023/06/27 05:52:46;;;;;;;3.15;1.35;;;21.80;56.70;;;;;;5003436;28;20030;-66
2023/06/27 05:55:12;;;;;;;3.22;1.75;;;21.80;57.10;;;;;;5000394;28;20068;-65
2023/06/27 05:57:37;;;;;;;4.47;1.90;;;21.80;57.10;;;;;;5000022;28;20431;-71
2023/06/27 06:00:03;;;;;;;3.63;1.60;;;21.80;57.50;;;;;;5004358;28;20030;-56
2023/06/27 06:02:29;;;;;;;4.60;1.70;;;21.90;57.40;;;;;;5001466;28;20034;-58
2023/06/27 06:04:54;;;;;;;3.83;1.58;;;21.80;57.20;;;;;;4999765;28;20044;-61
2023/06/27 06:07:20;;;;;;;4.60;1.70;;;21.80;57.40;;;;;;5003510;28;20042;-63
2023/06/27 06:09:45;;;;;;;4.18;1.33;;;21.80;57.40;;;;;;5001254;28;20412;-60
2023/06/27 06:12:11;;;;;;;4.75;1.50;;;21.80;57.30;;;;;;5006851;28;20038;-56
2023/06/27 06:14:36;;;;;;;5.70;1.70;;;21.70;57.30;;;;;;5004481;28;20467;-64
2023/06/27 06:17:02;;;;;;;5.28;1.65;;;21.70;57.50;;;;;;5004723;28;20132;-59
2023/06/27 06:19:27;;;;;;;5.43;1.60;;;21.70;57.70;;;;;;5002710;28;20030;-60
2023/06/27 06:21:53;;;;;;;7.25;2.13;;;21.60;57.50;;;;;;5003012;28;20034;-67
2023/06/27 06:24:18;;;;;;;3.75;1.70;;;21.60;57.50;;;;;;5002468;28;20026;-63
2023/06/27 06:26:44;;;;;;;4.03;1.50;;;21.60;57.40;;;;;;4999372;28;20665;-64
2023/06/27 06:29:13;;;;;;;3.50;1.70;;;21.50;58.30;;;;;;5003638;28;20030;-62
2023/06/27 06:31:39;;;;;;;3.78;1.40;;;21.70;58.20;;;;;;4998567;28;20034;-61
2023/06/27 06:34:04;;;;;;;6.38;2.22;;;21.70;58.30;;;;;;4999100;28;20193;-66
2023/06/27 06:36:30;;;;;;;3.80;1.73;;;21.70;57.50;;;;;;4998476;28;20408;-65
2023/06/27 06:38:55;;;;;;;3.58;1.52;;;21.60;58.20;;;;;;4999233;28;20038;-65
2023/06/27 06:41:21;;;;;;;3.70;1.80;;;21.60;57.80;;;;;;5003227;28;20036;-64
2023/06/27 06:43:46;;;;;;;4.30;1.65;;;21.70;58.30;;;;;;5001831;28;20022;-60
2023/06/27 06:46:12;;;;;;;5.13;1.90;;;21.70;58.00;;;;;;5001713;28;20121;-63
2023/06/27 06:48:37;;;;;;;3.95;1.38;;;21.70;58.00;;;;;;5001154;28;20515;-66
2023/06/27 06:51:03;;;;;;;5.00;1.33;;;21.70;57.60;;;;;;5004607;28;20096;-61
2023/06/27 06:53:28;;;;;;;3.65;1.40;;;21.60;57.80;;;;;;5004851;28;20030;-65
2023/06/27 06:55:54;;;;;;;4.68;1.30;;;21.60;57.60;;;;;;5005608;28;20061;-63
2023/06/27 06:58:19;;;;;;;3.13;1.70;;;21.60;57.70;;;;;;5003447;28;20038;-61
2023/06/27 07:00:45;;;;;;;5.10;1.33;;;21.70;57.50;;;;;;4999214;28;20048;-61
2023/06/27 07:03:10;;;;;;;2.95;1.20;;;21.70;57.70;;;;;;5005500;28;20515;-66
2023/06/27 07:05:37;;;;;;;6.13;1.60;;;21.70;57.30;;;;;;5003562;28;20109;-65
2023/06/27 07:08:04;;;;;;;7.53;1.83;;;21.70;57.50;;;;;;5004798;28;20511;-65
2023/06/27 07:10:30;;;;;;;7.38;2.15;;;21.60;57.80;;;;;;5004584;28;20033;-62
2023/06/27 07:12:55;;;;;;;3.80;1.55;;;21.50;57.00;;;;;;5003187;28;20038;-65
2023/06/27 07:15:23;;;;;;;5.22;1.48;;;21.60;57.50;;;;;;5005626;28;20092;-66
2023/06/27 07:17:50;;;;;;;3.95;1.83;;;21.60;58.00;;;;;;5000985;28;20030;-66
2023/06/27 07:20:16;;;;;;;4.80;1.27;;;21.60;57.70;;;;;;5003567;28;20104;-64
2023/06/27 07:22:42;;;;;;;8.40;2.00;;;21.60;57.50;;;;;;5004604;28;20065;-65
2023/06/27 07:25:08;;;;;;;5.40;1.50;;;21.60;57.30;;;;;;5004712;28;20057;-66
2023/06/27 07:27:33;;;;;;;8.18;2.25;;;21.60;57.80;;;;;;4996862;28;20519;-66
2023/06/27 07:29:59;;;;;;;5.63;1.95;;;21.50;56.90;;;;;;5002897;28;20053;-65
2023/06/27 07:32:24;;;;;;;5.25;1.75;;;21.60;57.30;;;;;;5002255;28;20397;-66
2023/06/27 07:34:50;;;;;;;5.60;1.63;;;21.60;56.50;;;;;;4966713;28;1003208;-66
2023/06/27 07:37:15;;;;;;;2.65;1.42;;;21.60;56.60;;;;;;5005190;28;20037;-66
2023/06/27 07:39:41;;;;;;;3.83;1.27;;;21.60;56.50;;;;;;5004977;28;20538;-65
2023/06/27 07:42:07;;;;;;;2.60;1.00;;;21.60;56.80;;;;;;5006968;28;20041;-66
2023/06/27 07:44:34;;;;;;;4.55;1.77;;;21.60;56.80;;;;;;5004961;28;20650;-66
2023/06/27 07:46:59;;;;;;;3.00;1.40;;;21.60;56.70;;;;;;5000854;28;20573;-66
2023/06/27 07:49:25;;;;;;;4.38;1.80;;;21.60;56.70;;;;;;5005632;28;20285;-66
2023/06/27 07:51:51;;;;;;;3.58;1.40;;;21.60;56.10;;;;;;5003158;28;20550;-65
2023/06/27 07:54:19;;;;;;;2.40;1.58;;;21.60;56.20;;;;;;5004305;28;20400;-66
2023/06/27 07:56:45;;;;;;;5.18;1.80;;;21.60;56.10;;;;;;5004741;28;20415;-66
2023/06/27 07:59:12;;;;;;;3.53;1.88;;;21.60;55.70;;;;;;5005954;28;20022;-66
2023/06/27 08:01:40;;;;;;;2.63;1.15;;;21.60;55.70;;;;;;5003513;28;20121;-66
2023/06/27 08:04:06;;;;;;;5.38;1.98;;;21.60;55.00;;;;;;5004233;28;20276;-65
2023/06/27 08:06:31;;;;;;;6.93;1.70;;;21.50;54.40;;;;;;5005120;28;20381;-65
2023/06/27 08:08:57;;;;;;;5.22;1.38;;;21.50;54.40;;;;;;5004687;28;20044;-66
2023/06/27 08:11:22;;;;;;;4.25;1.50;;;21.50;54.40;;;;;;5003169;28;20045;-66
2023/06/27 08:13:48;;;;;;;3.55;1.25;;;21.60;54.20;;;;;;5004770;28;20036;-65
2023/06/27 08:16:13;;;;;;;2.78;0.98;;;21.60;53.50;;;;;;5003655;28;20022;-66
2023/06/27 08:18:39;;;;;;;4.53;1.20;;;21.60;53.60;;;;;;5003128;28;20148;-66
2023/06/27 08:21:04;;;;;;;4.43;1.23;;;21.60;54.00;;;;;;5007781;28;20041;-66
2023/06/27 08:23:30;;;;;;;5.80;1.50;;;21.60;53.50;;;;;;5004972;28;20033;-65
2023/06/27 08:25:56;;;;;;;6.68;1.17;;;21.50;53.20;;;;;;5007133;28;20306;-66
2023/06/27 08:28:21;;;;;;;3.63;1.20;;;21.50;53.40;;;;;;5006548;28;20030;-66
2023/06/27 08:30:47;;;;;;;3.50;1.20;;;21.50;53.50;;;;;;5004690;28;20122;-66
2023/06/27 08:33:12;;;;;;;3.08;1.38;;;21.40;52.70;;;;;;5008694;28;20084;-67
2023/06/27 08:35:39;;;;;;;4.20;1.30;;;21.40;52.90;;;;;;5007572;28;20097;-66
2023/06/27 08:38:05;;;;;;;5.40;1.40;;;21.40;53.40;;;;;;5007813;28;20034;-67
2023/06/27 08:40:34;;;;;;;2.70;1.20;;;21.50;53.40;;;;;;5005741;28;20053;-66
2023/06/27 08:43:00;;;;;;;2.88;1.05;;;21.50;53.30;;;;;;5003945;28;20026;-65
2023/06/27 08:45:25;;;;;;;1.83;0.85;;;21.40;51.70;;;;;;5004572;28;20085;-66
2023/06/27 08:47:51;;;;;;;2.65;0.90;;;21.40;52.50;;;;;;5003454;28;20034;-66
2023/06/27 08:50:20;;;;;;;3.80;1.08;;;21.50;52.30;;;;;;5001556;28;20040;-66
2023/06/27 08:52:51;;;;;;;3.38;1.02;;;21.50;52.50;;;;;;4998720;28;20034;-67
2023/06/27 08:55:29;;;;;;;2.15;1.15;;;21.50;52.30;;;;;;5003113;28;20104;-65
2023/06/27 08:57:57;;;;;;;2.97;1.00;;;21.40;51.40;;;;;;4998453;28;20044;-66
2023/06/27 09:00:26;;;;;;;2.83;1.30;;;21.40;52.60;;;;;;5003790;28;20037;-66
2023/06/27 09:02:52;;;;;;;5.15;1.10;;;21.50;52.30;;;;;;5001563;28;20377;-66
2023/06/27 09:05:19;;;;;;;2.78;1.08;;;21.50;52.30;;;;;;5004430;28;20077;-66
2023/06/27 09:07:44;;;;;;;2.13;1.00;;;21.50;51.70;;;;;;5003066;28;20241;-66
2023/06/27 09:10:10;;;;;;;2.92;1.20;;;21.50;52.90;;;;;;5004098;28;20042;-66
2023/06/27 09:12:38;;;;;;;3.53;1.63;;;21.50;52.80;;;;;;5004639;28;20038;-65
2023/06/27 09:15:04;;;;;;;5.07;1.40;;;21.50;52.70;;;;;;5000909;28;20044;-66
2023/06/27 09:17:30;;;;;;;2.83;1.10;;;21.50;53.10;;;;;;5006658;28;20581;-66
2023/06/27 09:19:55;;;;;;;3.50;1.00;;;21.60;52.80;;;;;;5003954;28;20329;-66
2023/06/27 09:22:23;;;;;;;4.43;1.73;;;21.60;52.10;;;;;;5005673;28;20026;-66
2023/06/27 09:24:49;;;;;;;2.25;1.10;;;21.50;52.10;;;;;;5006082;28;20030;-64
2023/06/27 09:27:31;;;;;;;4.63;1.30;;;21.50;52.30;;;;;;5004139;28;20034;-66
2023/06/27 09:30:02;;;;;;;3.70;0.93;;;21.50;51.90;;;;;;5003656;28;20022;-66
2023/06/27 09:32:27;;;;;;;4.90;0.77;;;21.50;52.10;;;;;;5001718;28;20116;-63
2023/06/27 09:34:52;;;;;;;2.22;0.75;;;21.50;51.50;;;;;;5001476;28;20136;-66
2023/06/27 09:37:27;;;;;;;2.42;1.10;;;21.40;51.20;;;;;;5000070;28;20042;-65
2023/06/27 09:39:54;;;;;;;1.60;1.17;;;21.50;51.30;;;;;;5002206;28;20550;-66
2023/06/27 09:42:19;;;;;;;2.15;1.00;;;21.50;51.00;;;;;;5001969;28;20033;-66
2023/06/27 09:44:45;;;;;;;4.30;1.00;;;21.50;52.00;;;;;;5002997;28;20100;-66
2023/06/27 09:47:10;;;;;;;1.95;0.90;;;21.50;51.50;;;;;;5000982;28;20108;-65
2023/06/27 09:49:41;;;;;;;2.25;0.93;;;21.50;52.50;;;;;;5000600;28;20121;-66
2023/06/27 09:52:11;;;;;;;2.78;0.93;;;21.50;52.60;;;;;;5002435;28;20574;-66
2023/06/27 09:54:43;;;;;;;4.72;1.17;;;21.50;52.80;;;;;;4999878;28;20492;-65
2023/06/27 09:57:16;;;;;;;1.52;0.90;;;21.50;52.20;;;;;;5001674;28;20401;-65
2023/06/27 09:59:42;;;;;;;4.82;1.52;;;21.50;51.70;;;;;;5003474;28;20079;-65
2023/06/27 10:02:14;;;;;;;2.58;0.80;;;21.60;52.50;;;;;;5003508;28;20034;-66
2023/06/27 10:04:39;;;;;;;7.80;1.33;;;21.60;52.70;;;;;;4996033;28;20041;-66
2023/06/27 10:07:07;;;;;;;2.88;1.30;;;21.60;52.60;;;;;;5001698;28;20025;-65
2023/06/27 10:09:35;;;;;;;3.50;1.15;;;21.60;52.30;;;;;;5002928;28;20065;-65
2023/06/27 10:12:01;;;;;;;2.38;0.98;;;21.60;52.50;;;;;;5002351;28;20042;-65
2023/06/27 10:14:27;;;;;;;2.53;1.10;;;21.60;52.10;;;;;;5003759;28;20030;-66
2023/06/27 10:16:54;;;;;;;3.67;1.50;;;21.60;51.70;;;;;;5000049;28;20095;-63
2023/06/27 10:19:19;;;;;;;5.97;1.00;;;21.60;52.30;;;;;;4998940;28;20041;-65
2023/06/27 10:21:45;;;;;;;2.05;0.95;;;21.60;51.30;;;;;;5001556;28;20030;-66
2023/06/27 10:24:13;;;;;;;3.33;1.20;;;21.50;51.30;;;;;;5004178;28;20037;-66
2023/06/27 10:26:38;;;;;;;2.00;1.10;;;21.50;52.00;;;;;;5003854;28;20030;-65
2023/06/27 10:29:14;;;;;;;2.28;1.08;;;21.50;52.00;;;;;;4999895;28;20036;-66
2023/06/27 10:31:45;;;;;;;2.25;1.00;;;21.60;52.50;;;;;;4998339;28;20026;-65
2023/06/27 10:34:20;;;;;;;2.58;0.98;;;21.60;52.10;;;;;;5001989;28;20070;-65
2023/06/27 10:36:55;;;;;;;1.48;0.80;;;21.60;52.20;;;;;;4997943;28;20037;-66
2023/06/27 10:39:34;;;;;;;2.63;0.90;;;21.60;51.70;;;;;;5002079;28;20477;-66
2023/06/27 10:42:26;;;;;;;4.90;1.75;;;21.60;51.30;;;;;;5001812;28;20037;-66
2023/06/27 10:45:03;;;;;;;4.93;1.15;;;21.50;51.40;;;;;;4998881;28;20436;-66
2023/06/27 10:47:39;;;;;;;1.88;0.90;;;21.60;52.20;;;;;;5017591;28;20037;-65
2023/06/27 10:50:12;;;;;;;4.28;1.08;;;21.60;52.00;;;;;;5001815;28;20030;-65
2023/06/27 10:52:39;;;;;;;1.30;0.80;;;21.60;52.20;;;;;;4990935;28;20052;-65
2023/06/27 10:55:13;;;;;;;2.88;0.93;;;21.60;51.60;;;;;;5001675;28;20025;-65
2023/06/27 10:57:40;;;;;;;1.52;1.20;;;21.60;51.00;;;;;;4991867;28;20029;-66
2023/06/27 11:00:15;;;;;;;1.92;1.00;;;21.60;51.00;;;;;;5001490;28;20265;-66
2023/06/27 11:02:47;;;;;;;5.53;1.98;;;21.60;50.40;;;;;;4992686;28;20040;-66
2023/06/27 11:05:16;;;;;;;3.72;1.20;;;21.60;50.90;;;;;;5000369;28;20044;-65
2023/06/27 11:07:58;;;;;;;2.65;1.20;;;21.60;51.10;;;;;;5002345;28;20389;-66
2023/06/27 11:10:25;;;;;;;1.77;0.70;;;21.70;51.20;;;;;;5000669;28;20091;-66
2023/06/27 11:13:11;;;;;;;4.10;1.20;;;21.60;50.60;;;;;;4998861;28;20038;-65
2023/06/27 11:15:37;;;;;;;2.05;0.95;;;21.60;50.50;;;;;;5002297;28;20030;-64
2023/06/27 11:18:04;;;;;;;1.65;1.00;;;21.60;50.60;;;;;;5000169;28;20079;-66
2023/06/27 11:20:30;;;;;;;1.55;0.80;;;21.60;51.20;;;;;;4999498;28;20125;-66
2023/06/27 11:22:58;;;;;;;2.15;1.38;;;21.60;51.00;;;;;;5002762;28;20030;-65
2023/06/27 11:25:24;;;;;;;3.47;1.17;;;21.60;50.90;;;;;;5001889;28;20037;-66
2023/06/27 11:27:56;;;;;;;5.63;1.08;;;21.60;49.80;;;;;;4999365;28;20030;-66
2023/06/27 11:30:25;;;;;;;5.43;1.10;;;21.60;51.00;;;;;;5001599;28;20393;-65
2023/06/27 11:32:54;;;;;;;3.13;1.15;;;21.60;50.50;;;;;;5000323;28;20038;-66
2023/06/27 11:35:21;;;;;;;3.42;0.90;;;21.60;50.50;;;;;;5002478;28;20057;-66
2023/06/27 11:37:47;;;;;;;3.03;0.90;;;21.60;51.20;;;;;;5005698;28;21826;-66
2023/06/27 11:40:16;;;;;;;3.58;1.00;;;21.70;51.40;;;;;;5005137;28;20034;-65
2023/06/27 11:42:42;;;;;;;3.78;1.08;;;21.70;51.20;;;;;;5003159;28;20030;-66
2023/06/27 11:45:11;;;;;;;2.63;1.00;;;21.70;51.50;;;;;;5002270;28;20042;-66
2023/06/27 11:47:37;;;;;;;2.85;1.05;;;21.70;51.10;;;;;;5005371;28;20029;-65
2023/06/27 11:50:05;;;;;;;2.00;1.08;;;21.60;50.80;;;;;;5005596;28;20026;-64
2023/06/27 11:52:30;;;;;;;1.23;0.75;;;21.70;51.60;;;;;;5007527;28;20038;-64
2023/06/27 11:54:56;;;;;;;3.13;0.75;;;21.70;50.60;;;;;;5006336;28;20037;-66
2023/06/27 11:57:21;;;;;;;4.72;1.23;;;21.70;51.00;;;;;;5006430;28;20428;-66
2023/06/27 11:59:50;;;;;;;2.22;1.00;;;21.70;50.20;;;;;;5006613;28;20034;-66
2023/06/27 12:02:16;;;;;;;3.10;1.10;;;21.70;50.90;;;;;;5003072;28;20034;-66
2023/06/27 12:04:42;;;;;;;1.00;0.82;;;21.80;50.60;;;;;;5003883;28;20080;-66
2023/06/27 12:07:19;;;;;;;3.83;1.23;;;21.70;50.00;;;;;;5007744;28;20034;-65
2023/06/27 12:09:45;;;;;;;3.15;0.80;;;21.70;49.30;;;;;;5002670;28;20034;-67
2023/06/27 12:12:10;;;;;;;4.30;1.15;;;21.70;49.80;;;;;;5006902;28;20099;-66
2023/06/27 12:14:36;;;;;;;2.47;1.27;;;21.70;49.80;;;;;;5007109;28;20489;-66
2023/06/27 12:17:02;;;;;;;2.30;1.00;;;21.70;50.40;;;;;;5007281;28;20034;-66
2023/06/27 12:19:27;;;;;;;2.55;1.10;;;21.70;50.20;;;;;;5006572;28;20606;-63
2023/06/27 12:21:53;;;;;;;2.55;1.02;;;21.70;51.20;;;;;;5006808;28;20045;-65
2023/06/27 12:24:22;;;;;;;2.85;1.00;;;21.70;50.80;;;;;;5006149;28;20042;-66
2023/06/27 12:26:48;;;;;;;2.63;1.30;;;21.80;51.30;;;;;;5008518;28;20595;-66
2023/06/27 12:29:13;;;;;;;1.95;0.93;;;21.80;51.00;;;;;;5005085;28;20030;-66
2023/06/27 12:31:39;;;;;;;2.57;1.00;;;21.90;51.50;;;;;;5004745;28;20029;-66
2023/06/27 12:34:05;;;;;;;1.30;0.95;;;21.80;51.60;;;;;;5004737;28;20115;-66
2023/06/27 12:36:32;;;;;;;3.13;1.13;;;21.80;51.30;;;;;;5005770;28;20517;-66
2023/06/27 12:38:59;;;;;;;3.85;1.40;;;21.80;51.00;;;;;;5005957;28;20409;-65
2023/06/27 12:41:26;;;;;;;3.88;1.02;;;21.80;50.80;;;;;;5003795;28;20076;-65
2023/06/27 12:43:52;;;;;;;1.67;0.80;;;21.80;50.80;;;;;;5004932;28;20030;-66
2023/06/27 12:46:18;;;;;;;4.68;1.00;;;21.80;51.30;;;;;;5002652;28;20045;-66